Alcaraz, Argentina
Current Conditions -  °F | °C
As of 3:00 PM on Thursday 29 Jan 2015 (Local Time) from SUSO Reporting Station
Clear Clear  
Wind Chill: 81°   Ceiling: Unl
Heat Index: 81°   Visibility: 6mi
Dew Point: 59°   Wind: 12mph
Humidity: 48%   Direction: 180°S
Pressure: 30"   Gusts: NA
Location:  31.47°S, 59.6°W
Report Text: SUSO 291800Z 18010KT CAVOK 27/15 Q1016
Loading
Personal Weather Stations






























Interactive Weather Map New forecast layout! Learn more

10-Day Weather Forecast

Advertisements
Track Severe Weather on mobile